createdAt,value
2022-11-24T00:01:03.785Z,5.78
2022-11-24T00:03:30.677Z,4.35
2022-11-24T00:05:57.161Z,3.78
2022-11-24T00:08:23.592Z,4.30
2022-11-24T00:10:49.976Z,10.55
2022-11-24T00:13:16.386Z,7.57
2022-11-24T00:15:43.535Z,7.22
2022-11-24T00:18:10.227Z,8.32
2022-11-24T00:20:36.607Z,6.72
2022-11-24T00:23:02.973Z,6.60
2022-11-24T00:25:29.358Z,5.30
2022-11-24T00:27:55.754Z,7.15
2022-11-24T00:30:22.165Z,6.50
2022-11-24T00:32:48.541Z,7.68
2022-11-24T00:35:14.900Z,4.50
2022-11-24T00:37:41.328Z,5.65
2022-11-24T00:40:08.494Z,8.27
2022-11-24T00:42:35.593Z,7.15
2022-11-24T00:45:10.333Z,6.07
2022-11-24T00:47:40.148Z,5.72
2022-11-24T00:50:07.674Z,7.25
2022-11-24T00:52:34.058Z,8.32
2022-11-24T00:55:00.440Z,7.03
2022-11-24T00:57:26.866Z,6.95
2022-11-24T00:59:53.280Z,5.63
2022-11-24T01:02:19.789Z,5.28
2022-11-24T01:04:46.234Z,5.95
2022-11-24T01:07:12.674Z,9.15
2022-11-24T01:09:43.061Z,11.30
2022-11-24T01:12:09.441Z,5.65
2022-11-24T01:14:36.395Z,6.00
2022-11-24T01:17:03.168Z,8.75
2022-11-24T01:19:29.886Z,5.75
2022-11-24T01:21:56.294Z,6.25
2022-11-24T01:24:23.672Z,7.60
2022-11-24T01:26:50.101Z,8.82
2022-11-24T01:29:17.024Z,10.55
2022-11-24T01:31:43.445Z,9.38
2022-11-24T01:34:10.497Z,8.68
2022-11-24T01:36:36.947Z,10.30
2022-11-24T01:39:03.440Z,6.80
2022-11-24T01:41:30.955Z,14.82
2022-11-24T01:43:57.689Z,11.70
2022-11-24T01:46:47.009Z,5.93
2022-11-24T01:49:20.964Z,7.53
2022-11-24T01:51:56.866Z,10.68
2022-11-24T01:54:34.372Z,5.25
2022-11-24T01:57:08.275Z,7.63
2022-11-24T01:59:35.612Z,11.57
2022-11-24T02:02:02.190Z,14.07
2022-11-24T02:04:33.160Z,7.65
2022-11-24T02:07:05.787Z,13.55
2022-11-24T02:09:42.869Z,15.18
2022-11-24T02:12:09.664Z,11.55
2022-11-24T02:14:38.114Z,12.43
2022-11-24T02:17:05.121Z,9.35
2022-11-24T02:19:43.312Z,13.80
2022-11-24T02:22:18.795Z,10.50
2022-11-24T02:24:52.017Z,16.88
2022-11-24T02:27:20.339Z,11.13
2022-11-24T02:29:47.965Z,7.85
2022-11-24T02:32:16.231Z,10.75
2022-11-24T02:34:42.668Z,11.90
2022-11-24T02:37:09.917Z,16.48
2022-11-24T02:39:36.928Z,21.08
2022-11-24T02:42:08.143Z,10.50
2022-11-24T02:44:39.237Z,8.68
2022-11-24T02:47:11.452Z,13.38
2022-11-24T02:49:38.028Z,10.23
2022-11-24T02:52:05.044Z,11.40
2022-11-24T02:54:32.209Z,13.00
2022-11-24T02:56:58.988Z,14.48
2022-11-24T02:59:25.832Z,11.60
2022-11-24T03:01:52.446Z,13.00
2022-11-24T03:04:19.046Z,17.33
2022-11-24T03:06:45.512Z,11.20
2022-11-24T03:09:11.992Z,14.88
2022-11-24T03:11:38.974Z,14.35
2022-11-24T03:14:06.449Z,9.70
2022-11-24T03:16:33.237Z,12.23
2022-11-24T03:19:00.341Z,15.13
2022-11-24T03:21:27.061Z,14.00
2022-11-24T03:23:54.471Z,9.90
2022-11-24T03:26:22.631Z,10.93
2022-11-24T03:28:49.270Z,17.15
2022-11-24T03:31:15.834Z,12.20
2022-11-24T03:33:43.597Z,18.35
2022-11-24T03:36:10.180Z,19.00
2022-11-24T03:38:37.251Z,18.40
2022-11-24T03:41:03.736Z,17.23
2022-11-24T03:43:30.220Z,12.32
2022-11-24T03:45:56.743Z,14.95
2022-11-24T03:48:23.276Z,18.92
2022-11-24T03:51:00.209Z,15.38
2022-11-24T03:53:28.714Z,14.25
2022-11-24T03:55:55.527Z,15.80
2022-11-24T03:58:22.436Z,15.48
2022-11-24T04:00:50.791Z,12.02
2022-11-24T04:03:17.620Z,19.48
2022-11-24T04:05:44.052Z,14.55
2022-11-24T04:08:10.494Z,22.13
2022-11-24T04:10:38.378Z,14.50
2022-11-24T04:13:12.108Z,18.35
2022-11-24T04:18:14.937Z,10.98
2022-11-24T04:20:43.107Z,18.70
2022-11-24T04:23:10.254Z,14.40
2022-11-24T04:25:37.164Z,15.60
2022-11-24T04:28:04.487Z,17.40
2022-11-24T04:30:31.354Z,17.58
2022-11-24T04:32:58.155Z,15.80
2022-11-24T04:35:25.002Z,13.70
2022-11-24T04:37:51.617Z,17.85
2022-11-24T04:40:18.473Z,14.40
2022-11-24T04:42:53.391Z,9.80
2022-11-24T04:45:19.766Z,12.95
2022-11-24T04:47:46.742Z,17.20
2022-11-24T04:50:13.317Z,10.88
2022-11-24T04:52:39.808Z,10.63
2022-11-24T04:55:06.766Z,12.73
2022-11-24T04:57:33.399Z,14.13
2022-11-24T04:59:59.860Z,20.80
2022-11-24T05:02:26.433Z,15.90
2022-11-24T05:04:52.859Z,11.70
2022-11-24T05:07:20.298Z,20.20
2022-11-24T05:10:06.007Z,16.02
2022-11-24T05:12:32.564Z,12.50
2022-11-24T05:14:59.965Z,14.88
2022-11-24T05:17:32.236Z,18.63
2022-11-24T05:19:58.961Z,17.90
2022-11-24T05:22:25.860Z,15.13
2022-11-24T05:24:52.316Z,11.55
2022-11-24T05:27:18.803Z,14.43
2022-11-24T05:29:45.245Z,20.63
2022-11-24T05:32:11.810Z,15.52
2022-11-24T05:34:38.571Z,15.93
2022-11-24T05:37:05.382Z,22.25
2022-11-24T05:39:38.263Z,13.68
2022-11-24T05:42:26.479Z,14.50
2022-11-24T05:44:53.579Z,14.63
2022-11-24T05:47:20.655Z,16.27
2022-11-24T05:49:47.231Z,12.45
2022-11-24T05:52:13.698Z,19.33
2022-11-24T05:54:40.228Z,26.75
2022-11-24T05:57:06.772Z,13.43
2022-11-24T05:59:33.810Z,12.95
2022-11-24T06:02:01.037Z,13.18
2022-11-24T06:04:29.228Z,12.93
2022-11-24T06:06:55.680Z,11.18
2022-11-24T06:09:22.138Z,15.25
2022-11-24T06:11:48.941Z,13.05
2022-11-24T06:14:15.564Z,16.65
2022-11-24T06:16:44.504Z,14.05
2022-11-24T06:19:12.647Z,18.92
2022-11-24T06:21:39.143Z,14.43
2022-11-24T06:24:06.168Z,16.60
2022-11-24T06:26:32.640Z,14.52
2022-11-24T06:28:59.399Z,15.13
2022-11-24T06:31:26.037Z,19.42
2022-11-24T06:33:52.532Z,14.48
2022-11-24T06:36:19.083Z,19.92
2022-11-24T06:38:45.524Z,20.02
2022-11-24T06:41:14.116Z,11.13
2022-11-24T06:43:41.236Z,22.83
2022-11-24T06:46:10.192Z,16.15
2022-11-24T06:48:36.839Z,16.08
2022-11-24T06:51:06.599Z,17.33
2022-11-24T06:53:37.878Z,14.50
2022-11-24T06:56:12.140Z,16.30
2022-11-24T06:58:44.249Z,20.00
2022-11-24T07:01:17.258Z,23.33
2022-11-24T07:03:44.046Z,15.23
2022-11-24T07:06:10.488Z,16.42
2022-11-24T07:08:37.094Z,11.95
2022-11-24T07:11:08.110Z,20.63
2022-11-24T07:13:35.115Z,17.23
2022-11-24T07:16:16.434Z,15.57
2022-11-24T07:18:44.529Z,14.93
2022-11-24T07:21:11.447Z,14.45
2022-11-24T07:23:38.273Z,18.52
2022-11-24T07:26:07.062Z,19.02
2022-11-24T07:28:34.370Z,18.38
2022-11-24T07:31:06.900Z,24.38
2022-11-24T07:33:33.540Z,15.65
2022-11-24T07:36:00.659Z,12.13
2022-11-24T07:38:28.665Z,25.60
2022-11-24T07:40:58.675Z,24.38
2022-11-24T07:46:07.241Z,17.67
2022-11-24T07:48:34.461Z,18.13
2022-11-24T07:51:04.055Z,20.33
2022-11-24T07:53:30.952Z,15.85
2022-11-24T07:56:02.549Z,18.40
2022-11-24T07:58:32.966Z,18.73
2022-11-24T08:01:00.538Z,26.00
2022-11-24T08:03:27.083Z,22.33
2022-11-24T08:08:46.568Z,22.88
2022-11-24T08:11:17.701Z,19.20
2022-11-24T08:13:44.646Z,17.67
2022-11-24T08:16:13.668Z,21.13
2022-11-24T08:18:40.883Z,18.08
2022-11-24T08:21:13.964Z,17.58
2022-11-24T08:23:40.668Z,26.42
2022-11-24T08:26:10.769Z,23.33
2022-11-24T08:28:38.182Z,21.65
2022-11-24T08:31:07.950Z,22.02
2022-11-24T08:33:34.607Z,25.00
2022-11-24T08:36:16.889Z,41.63
2022-11-24T08:38:44.708Z,25.38
2022-11-24T08:41:14.354Z,24.10
2022-11-24T08:43:41.045Z,29.77
2022-11-24T08:46:10.987Z,24.17
2022-11-24T08:48:37.978Z,22.27
2022-11-24T08:51:12.528Z,16.08
2022-11-24T08:53:39.547Z,19.65
2022-11-24T08:56:06.767Z,20.67
2022-11-24T08:58:33.677Z,22.40
2022-11-24T09:01:12.047Z,19.10
2022-11-24T09:03:42.354Z,20.63
2022-11-24T09:06:13.007Z,18.38
2022-11-24T09:08:39.937Z,17.35
2022-11-24T09:11:09.662Z,26.50
2022-11-24T09:13:36.832Z,19.33
2022-11-24T09:16:28.879Z,21.17
2022-11-24T09:18:56.655Z,22.83
2022-11-24T09:21:24.136Z,17.88
2022-11-24T09:23:52.326Z,21.23
2022-11-24T09:26:25.402Z,15.65
2022-11-24T09:28:56.691Z,23.77
2022-11-24T09:31:25.927Z,18.23
2022-11-24T09:33:52.896Z,24.98
2022-11-24T09:36:20.291Z,33.30
2022-11-24T09:38:47.097Z,20.45
2022-11-24T09:41:32.696Z,21.83
2022-11-24T09:44:31.583Z,22.80
2022-11-24T09:47:07.021Z,19.23
2022-11-24T09:49:53.189Z,15.70
2022-11-24T09:52:33.145Z,19.73
2022-11-24T09:55:04.879Z,13.32
2022-11-24T09:57:37.637Z,25.45
2022-11-24T10:00:13.839Z,30.10
2022-11-24T10:02:40.294Z,15.77
2022-11-24T10:05:07.396Z,16.00
2022-11-24T10:07:42.579Z,15.05
2022-11-24T10:10:24.328Z,15.57
2022-11-24T10:13:16.072Z,13.75
2022-11-24T10:15:54.869Z,23.58
2022-11-24T10:18:32.434Z,20.27
2022-11-24T10:21:25.168Z,24.50
2022-11-24T10:24:03.633Z,17.02
2022-11-24T10:26:36.021Z,18.83
2022-11-24T10:29:19.472Z,20.83
2022-11-24T10:31:48.949Z,25.98
2022-11-24T10:34:25.686Z,17.20
2022-11-24T10:36:59.613Z,18.77
2022-11-24T10:40:00.360Z,15.80
2022-11-24T10:42:37.696Z,16.23
2022-11-24T10:45:15.675Z,21.63
2022-11-24T10:47:43.740Z,34.63
2022-11-24T10:50:42.581Z,17.80
2022-11-24T10:53:08.928Z,21.08
2022-11-24T10:55:56.886Z,17.23
2022-11-24T10:58:32.994Z,21.75
2022-11-24T11:01:12.924Z,19.48
2022-11-24T11:03:56.198Z,22.55
2022-11-24T11:06:26.700Z,17.98
2022-11-24T11:09:08.445Z,14.35
2022-11-24T11:11:36.325Z,16.23
2022-11-24T11:14:05.731Z,12.15
2022-11-24T11:16:53.631Z,19.48
2022-11-24T11:19:47.834Z,19.05
2022-11-24T11:22:12.539Z,18.17
2022-11-24T11:24:41.386Z,16.13
2022-11-24T11:27:20.048Z,16.92
2022-11-24T11:35:21.192Z,14.48
2022-11-24T11:37:49.855Z,15.35
2022-11-24T11:40:19.436Z,20.13
2022-11-24T11:43:08.071Z,9.93
2022-11-24T11:45:41.401Z,15.18
2022-11-24T11:48:42.382Z,18.08
2022-11-24T11:51:41.208Z,18.13
2022-11-24T11:54:22.635Z,12.60
2022-11-24T11:56:53.821Z,16.23
2022-11-24T11:59:35.571Z,13.25
2022-11-24T12:02:29.212Z,12.13
2022-11-24T12:05:02.457Z,15.90
2022-11-24T12:07:34.755Z,13.90
2022-11-24T12:10:40.341Z,8.77
2022-11-24T12:13:23.556Z,12.23
2022-11-24T12:15:57.365Z,17.00
2022-11-24T12:18:57.769Z,10.02
2022-11-24T12:21:43.555Z,6.80
2022-11-24T12:24:36.597Z,10.45
2022-11-24T12:27:23.518Z,8.75
2022-11-24T12:30:03.842Z,15.25
2022-11-24T12:32:54.935Z,7.97
2022-11-24T12:35:38.548Z,6.95
2022-11-24T12:38:49.619Z,9.90
2022-11-24T12:41:54.363Z,10.38
2022-11-24T12:44:52.298Z,22.60
2022-11-24T12:47:24.658Z,7.20
2022-11-24T12:50:21.359Z,4.75
2022-11-24T12:53:02.392Z,4.75
2022-11-24T12:55:32.165Z,15.40
2022-11-24T12:58:14.463Z,6.13
2022-11-24T13:00:55.919Z,4.93
2022-11-24T13:04:04.250Z,5.50
2022-11-24T13:06:44.418Z,4.88
2022-11-24T13:09:14.094Z,4.20
2022-11-24T13:11:52.208Z,3.10
2022-11-24T13:14:22.653Z,3.58
2022-11-24T13:19:48.516Z,4.82
2022-11-24T13:22:22.919Z,4.75
2022-11-24T13:25:16.287Z,9.25
2022-11-24T13:27:55.461Z,5.88
2022-11-24T13:30:34.158Z,6.35
2022-11-24T13:33:16.460Z,6.10
2022-11-24T13:36:04.087Z,5.70
2022-11-24T13:38:45.691Z,5.93
2022-11-24T13:41:32.298Z,9.73
2022-11-24T13:44:14.787Z,8.00
2022-11-24T13:47:05.609Z,6.57
2022-11-24T13:49:43.319Z,5.80
2022-11-24T13:52:34.545Z,20.80
2022-11-24T13:55:06.084Z,6.60
2022-11-24T13:57:40.715Z,9.38
2022-11-24T14:00:33.990Z,6.63
2022-11-24T14:03:19.171Z,5.90
2022-11-24T14:05:51.462Z,5.00
2022-11-24T14:08:30.239Z,9.00
2022-11-24T14:10:59.088Z,5.38
2022-11-24T14:13:28.384Z,6.95
2022-11-24T14:16:19.513Z,4.68
2022-11-24T14:18:50.888Z,5.72
2022-11-24T14:21:20.424Z,7.63
2022-11-24T14:23:51.097Z,14.82
2022-11-24T14:26:39.268Z,10.75
2022-11-24T14:29:11.988Z,10.70
2022-11-24T14:31:38.792Z,9.02
2022-11-24T14:34:11.154Z,8.32
2022-11-24T14:36:39.266Z,9.00
2022-11-24T14:39:06.858Z,9.32
2022-11-24T14:41:34.304Z,8.95
2022-11-24T14:44:24.201Z,7.80
2022-11-24T14:46:51.180Z,8.13
2022-11-24T14:49:25.908Z,10.63
2022-11-24T14:52:03.109Z,8.63
2022-11-24T14:54:30.714Z,8.63
2022-11-24T14:57:00.297Z,11.38
2022-11-24T14:59:29.809Z,14.75
2022-11-24T15:01:57.124Z,12.57
2022-11-24T15:07:23.949Z,10.73
2022-11-24T15:09:55.232Z,10.20
2022-11-24T15:12:31.570Z,16.77
2022-11-24T15:15:02.007Z,9.98
2022-11-24T15:17:30.014Z,11.82
2022-11-24T15:20:09.685Z,11.35
2022-11-24T15:22:52.343Z,13.07
2022-11-24T15:25:25.117Z,11.25
2022-11-24T15:27:52.588Z,8.57
2022-11-24T15:30:19.207Z,12.50
2022-11-24T15:32:56.364Z,17.48
2022-11-24T15:35:25.208Z,8.13
2022-11-24T15:37:51.719Z,17.08
2022-11-24T15:40:18.993Z,9.68
2022-11-24T15:42:53.880Z,16.15
2022-11-24T15:45:22.750Z,15.60
2022-11-24T15:47:49.349Z,14.35
2022-11-24T15:50:16.725Z,9.48
2022-11-24T15:52:44.662Z,9.60
2022-11-24T15:55:18.369Z,10.30
2022-11-24T16:00:19.810Z,11.40
2022-11-24T16:02:46.793Z,9.50
2022-11-24T16:05:14.751Z,10.73
2022-11-24T16:07:41.492Z,10.95
2022-11-24T16:10:19.241Z,9.93
2022-11-24T16:12:45.806Z,14.45
2022-11-24T16:15:12.242Z,12.05
2022-11-24T16:17:38.717Z,12.63
2022-11-24T16:20:05.868Z,13.07
2022-11-24T16:22:32.455Z,9.23
2022-11-24T16:24:58.905Z,8.80
2022-11-24T16:27:25.481Z,11.50
2022-11-24T16:29:51.943Z,9.40
2022-11-24T16:32:18.459Z,12.27
2022-11-24T16:34:44.958Z,12.38
2022-11-24T16:37:11.392Z,7.80
2022-11-24T16:39:37.825Z,16.48
2022-11-24T16:42:04.505Z,10.88
2022-11-24T16:44:34.140Z,9.07
2022-11-24T16:47:01.034Z,6.85
2022-11-24T16:49:28.161Z,10.15
2022-11-24T16:51:54.923Z,11.63
2022-11-24T16:54:21.572Z,9.80
2022-11-24T16:56:48.021Z,11.35
2022-11-24T16:59:14.589Z,11.73
2022-11-24T17:01:41.145Z,9.55
2022-11-24T17:04:12.428Z,13.07
2022-11-24T17:06:39.839Z,16.48
2022-11-24T17:09:06.872Z,12.85
2022-11-24T17:11:34.477Z,13.25
2022-11-24T17:14:01.514Z,17.15
2022-11-24T17:16:28.369Z,9.00
2022-11-24T17:18:55.253Z,14.75
2022-11-24T17:21:27.390Z,12.75
2022-11-24T17:23:59.886Z,14.90
2022-11-24T17:26:27.466Z,12.77
2022-11-24T17:28:54.639Z,16.33
2022-11-24T17:31:22.506Z,9.82
2022-11-24T17:33:50.215Z,19.23
2022-11-24T17:36:16.870Z,10.35
2022-11-24T17:38:43.388Z,15.40
2022-11-24T17:41:09.872Z,11.45
2022-11-24T17:43:36.886Z,12.27
2022-11-24T17:46:05.888Z,10.98
2022-11-24T17:48:32.778Z,10.40
2022-11-24T17:51:08.103Z,8.30
2022-11-24T17:53:37.747Z,11.90
2022-11-24T17:56:05.250Z,9.65
2022-11-24T17:58:43.376Z,13.25
2022-11-24T18:01:11.121Z,44.10
2022-11-24T18:03:39.339Z,14.95
2022-11-24T18:06:14.384Z,12.10
2022-11-24T18:08:43.104Z,13.95
2022-11-24T18:11:14.963Z,11.23
2022-11-24T18:14:01.186Z,11.20
2022-11-24T18:16:30.200Z,14.98
2022-11-24T18:19:14.340Z,18.98
2022-11-24T18:21:41.750Z,11.32
2022-11-24T18:24:09.814Z,8.77
2022-11-24T18:26:36.375Z,8.65
2022-11-24T18:29:04.581Z,14.35
2022-11-24T18:31:32.249Z,11.45
2022-11-24T18:33:59.660Z,14.05
2022-11-24T18:36:30.350Z,11.60
2022-11-24T18:39:00.360Z,10.25
2022-11-24T18:41:27.159Z,14.98
2022-11-24T18:43:53.593Z,10.60
2022-11-24T18:46:20.175Z,11.07
2022-11-24T18:48:47.283Z,12.75
2022-11-24T18:51:17.649Z,9.85
2022-11-24T18:53:45.975Z,19.02
2022-11-24T18:56:15.399Z,17.10
2022-11-24T18:58:48.219Z,15.32
2022-11-24T19:01:17.311Z,14.13
2022-11-24T19:03:48.583Z,15.05
2022-11-24T19:06:24.639Z,15.25
2022-11-24T19:08:53.744Z,10.77
2022-11-24T19:11:22.120Z,17.45
2022-11-24T19:13:49.143Z,11.50
2022-11-24T19:16:19.103Z,14.50
2022-11-24T19:18:50.423Z,10.70
2022-11-24T19:21:20.432Z,11.40
2022-11-24T19:23:46.956Z,12.50
2022-11-24T19:26:16.520Z,15.57
2022-11-24T19:28:42.991Z,9.10
2022-11-24T19:31:12.730Z,12.95
2022-11-24T19:33:40.393Z,13.60
2022-11-24T19:36:19.875Z,16.13
2022-11-24T19:38:51.027Z,7.38
2022-11-24T19:41:21.297Z,13.70
2022-11-24T19:43:48.685Z,13.40
2022-11-24T19:46:17.723Z,9.07
2022-11-24T19:48:54.257Z,15.73
2022-11-24T19:51:30.624Z,19.83
2022-11-24T19:53:57.720Z,13.32
2022-11-24T19:56:26.972Z,13.38
2022-11-24T19:58:54.787Z,12.05
2022-11-24T20:01:27.080Z,20.17
2022-11-24T20:04:08.096Z,15.55
2022-11-24T20:06:38.236Z,22.45
2022-11-24T20:09:10.602Z,17.83
2022-11-24T20:11:38.310Z,12.02
2022-11-24T20:14:06.656Z,10.48
2022-11-24T20:16:34.861Z,9.98
2022-11-24T20:19:07.549Z,10.27
2022-11-24T20:21:36.123Z,11.73
2022-11-24T20:24:10.360Z,10.45
2022-11-24T20:26:40.073Z,15.48
2022-11-24T20:29:09.579Z,14.07
2022-11-24T20:31:39.626Z,16.40
2022-11-24T20:34:07.725Z,17.50
2022-11-24T20:36:35.861Z,21.73
2022-11-24T20:39:05.832Z,23.00
2022-11-24T20:41:35.467Z,17.90
2022-11-24T20:44:05.459Z,17.63
2022-11-24T20:46:34.617Z,21.08
2022-11-24T20:49:03.427Z,22.30
2022-11-24T20:51:32.946Z,22.73
2022-11-24T20:54:02.097Z,20.00
2022-11-24T20:56:31.401Z,18.20
2022-11-24T20:59:01.285Z,20.67
2022-11-24T21:01:30.724Z,19.20
2022-11-24T21:03:59.651Z,22.38
2022-11-24T21:06:28.073Z,18.40
2022-11-24T21:09:00.498Z,20.67
2022-11-24T21:11:30.581Z,20.50
2022-11-24T21:13:57.340Z,19.00
2022-11-24T21:16:27.526Z,17.92
2022-11-24T21:19:01.638Z,21.27
2022-11-24T21:21:34.676Z,21.92
2022-11-24T21:24:11.530Z,23.13
2022-11-24T21:26:39.416Z,22.15
2022-11-24T21:29:08.775Z,17.15
2022-11-24T21:31:37.020Z,14.02
2022-11-24T21:34:04.725Z,15.10
2022-11-24T21:36:33.057Z,13.32
2022-11-24T21:38:59.492Z,14.27
2022-11-24T21:41:28.340Z,14.25
2022-11-24T21:43:55.902Z,12.48
2022-11-24T21:46:22.462Z,6.32
2022-11-24T21:48:49.322Z,11.23
2022-11-24T21:51:18.404Z,14.93
2022-11-24T21:53:45.687Z,14.07
2022-11-24T21:56:15.346Z,8.38
2022-11-24T21:58:59.814Z,11.40
2022-11-24T22:01:28.668Z,16.90
2022-11-24T22:03:55.876Z,11.90
2022-11-24T22:06:22.993Z,13.35
2022-11-24T22:08:49.848Z,12.60
2022-11-24T22:11:21.483Z,17.23
2022-11-24T22:13:48.525Z,15.57
2022-11-24T22:16:17.730Z,11.38
2022-11-24T22:18:45.650Z,14.82
2022-11-24T22:21:14.450Z,10.80
2022-11-24T22:23:41.636Z,9.88
2022-11-24T22:26:12.545Z,13.60
2022-11-24T22:28:39.393Z,14.18
2022-11-24T22:31:08.166Z,13.57
2022-11-24T22:33:35.037Z,9.75
2022-11-24T22:36:02.128Z,13.13
2022-11-24T22:38:29.517Z,10.95
2022-11-24T22:41:01.173Z,14.27
2022-11-24T22:43:29.572Z,8.32
2022-11-24T22:45:55.993Z,10.02
2022-11-24T22:48:22.386Z,11.48
2022-11-24T22:50:48.948Z,8.15
2022-11-24T22:53:15.327Z,12.70
2022-11-24T22:55:42.754Z,14.05
2022-11-24T22:58:09.151Z,9.88
2022-11-24T23:00:35.573Z,10.63
2022-11-24T23:03:02.421Z,9.25
2022-11-24T23:05:29.158Z,9.77
2022-11-24T23:07:55.682Z,12.15
2022-11-24T23:10:22.740Z,15.85
2022-11-24T23:12:49.932Z,12.82
2022-11-24T23:15:16.403Z,13.07
2022-11-24T23:17:42.883Z,9.15
2022-11-24T23:20:10.042Z,12.05
2022-11-24T23:22:36.444Z,14.30
2022-11-24T23:25:02.971Z,19.55
2022-11-24T23:27:29.408Z,14.40
2022-11-24T23:29:55.960Z,15.52
2022-11-24T23:32:22.418Z,13.20
2022-11-24T23:34:48.972Z,9.57
2022-11-24T23:37:15.731Z,17.15
2022-11-24T23:39:42.195Z,17.27
2022-11-24T23:42:08.852Z,10.73
2022-11-24T23:44:35.527Z,13.57
2022-11-24T23:47:02.153Z,12.30
2022-11-24T23:49:30.009Z,10.90
2022-11-24T23:51:56.407Z,8.57
2022-11-24T23:54:22.833Z,13.52
2022-11-24T23:56:49.201Z,8.70
2022-11-24T23:59:17.572Z,17.58
